Time;durP1;ratioP1;P1;durP2;ratioP2;P2;SDS_P1;SDS_P2;PMS_P1;PMS_P2;Temp;Humidity;BMP_temperature;BMP_pressure;BME280_temperature;BME280_humidity;BME280_pressure;Samples;Min_cycle;Max_cycle;Signal;HPM_P1;HPM_P2
2022/04/25 00:01:47;;;;;;;14.77;8.25;;;8.40;99.90;;;;;;2131496;67;20183;-72
2022/04/25 00:04:29;;;;;;;9.32;7.57;;;8.40;99.90;;;;;;2130408;67;20814;-71
2022/04/25 00:07:11;;;;;;;14.23;8.20;;;8.50;99.90;;;;;;2117693;67;20306;-72
2022/04/25 00:09:54;;;;;;;12.05;7.80;;;8.50;99.90;;;;;;2115922;67;20665;-72
2022/04/25 00:12:39;;;;;;;14.70;8.23;;;8.80;99.90;;;;;;2116847;67;20169;-71
2022/04/25 00:15:21;;;;;;;10.55;7.43;;;8.60;99.90;;;;;;2106592;67;20295;-70
2022/04/25 00:18:06;;;;;;;;;;;8.70;99.90;;;;;;2111994;67;20302;-71
2022/04/25 00:20:50;;;;;;;13.63;8.23;;;8.70;99.90;;;;;;2116447;67;20630;-72
2022/04/25 00:23:37;;;;;;;8.70;7.40;;;8.80;99.90;;;;;;2118729;67;22669;-71
2022/04/25 00:26:22;;;;;;;16.15;9.32;;;8.80;99.90;;;;;;2125402;67;20184;-70
2022/04/25 00:29:09;;;;;;;12.35;8.90;;;8.70;99.90;;;;;;2110785;67;20426;-71
2022/04/25 00:31:54;;;;;;;13.65;8.95;;;8.60;99.90;;;;;;2097113;68;20287;-72
2022/04/25 00:34:41;;;;;;;;;;;8.90;99.90;;;;;;2104272;68;20686;-70
2022/04/25 00:37:24;;;;;;;10.95;8.02;;;8.90;99.90;;;;;;2099199;67;20427;-71
2022/04/25 00:40:10;;;;;;;12.93;8.65;;;8.90;99.90;;;;;;2108126;67;21128;-72
2022/04/25 00:42:53;;;;;;;15.18;7.72;;;9.00;99.90;;;;;;2123478;67;20314;-71
2022/04/25 00:45:39;;;;;;;13.45;8.52;;;9.00;99.90;;;;;;2131897;67;20846;-72
2022/04/25 00:48:23;;;;;;;14.05;9.05;;;8.90;99.90;;;;;;2127603;66;20795;-71
2022/04/25 00:51:05;;;;;;;12.88;9.23;;;8.90;99.90;;;;;;2119104;67;20166;-72
2022/04/25 00:53:49;;;;;;;13.63;8.95;;;8.90;99.90;;;;;;2127741;67;20206;-72
2022/04/25 00:56:35;;;;;;;15.73;8.77;;;8.80;99.90;;;;;;2136126;66;20280;-72
2022/04/25 00:59:18;;;;;;;15.45;9.80;;;8.80;99.90;;;;;;2143481;66;20421;-71
2022/04/25 01:02:01;;;;;;;14.30;8.95;;;8.70;99.90;;;;;;2127138;67;20721;-72
2022/04/25 01:04:46;;;;;;;12.00;9.55;;;8.70;99.90;;;;;;2133792;67;20283;-71
2022/04/25 01:07:31;;;;;;;14.63;9.55;;;8.70;99.90;;;;;;2140703;66;20271;-71
2022/04/25 01:10:13;;;;;;;11.93;8.95;;;8.70;99.90;;;;;;2142372;66;20324;-71
2022/04/25 01:12:58;;;;;;;14.18;8.93;;;8.70;99.90;;;;;;2134071;67;20328;-73
2022/04/25 01:15:40;;;;;;;15.07;10.57;;;8.70;99.90;;;;;;2147069;66;20178;-73
2022/04/25 01:18:21;;;;;;;16.77;10.13;;;8.60;99.90;;;;;;2139553;67;20723;-71
2022/04/25 01:21:09;;;;;;;12.25;9.57;;;8.60;99.90;;;;;;2138117;67;20768;-71
2022/04/25 01:29:56;;;;;;;16.33;10.77;;;8.40;99.90;;;;;;2102391;68;20211;-71
2022/04/25 01:32:42;;;;;;;16.27;10.82;;;8.30;99.90;;;;;;2114987;67;20334;-72
2022/04/25 01:35:28;;;;;;;;;;;8.20;99.90;;;;;;2125930;67;20678;-72
2022/04/25 01:38:13;;;;;;;15.43;10.10;;;8.10;99.90;;;;;;2117422;67;20218;-70
2022/04/25 01:40:59;;;;;;;13.05;8.63;;;8.00;99.90;;;;;;2118576;67;20229;-72
2022/04/25 01:43:44;;;;;;;14.10;10.27;;;7.90;99.90;;;;;;2110861;67;20663;-72
2022/04/25 01:46:29;;;;;;;16.25;10.40;;;7.90;99.90;;;;;;2118149;67;20933;-72
2022/04/25 01:49:12;;;;;;;14.65;10.98;;;7.80;99.90;;;;;;2118373;67;20691;-71
2022/04/25 01:51:56;;;;;;;14.63;10.27;;;7.70;99.90;;;;;;2117279;67;20283;-70
2022/04/25 01:54:39;;;;;;;17.42;10.93;;;7.60;99.90;;;;;;2132425;67;20239;-72
2022/04/25 01:57:26;;;;;;;15.30;10.57;;;7.60;99.90;;;;;;2114249;67;20259;-72
2022/04/25 02:00:10;;;;;;;14.52;10.77;;;7.50;99.90;;;;;;2126543;67;20325;-72
2022/04/25 02:02:53;;;;;;;14.73;11.00;;;7.50;99.90;;;;;;2146083;66;20186;-72
2022/04/25 02:05:39;;;;;;;17.60;10.73;;;7.50;99.90;;;;;;2145268;66;20254;-71
2022/04/25 02:08:23;;;;;;;;;;;7.50;99.90;;;;;;2135007;67;20254;-71
2022/04/25 02:11:21;;;;;;;17.08;11.13;;;7.60;99.90;;;;;;2131623;67;20478;-72
2022/04/25 02:14:04;;;;;;;17.20;10.90;;;7.60;99.90;;;;;;2140389;66;20256;-73
2022/04/25 02:16:47;;;;;;;17.52;10.50;;;7.70;99.90;;;;;;2127268;66;20411;-72
2022/04/25 02:19:38;;;;;;;17.23;9.55;;;7.80;99.90;;;;;;2118756;67;21104;-71
2022/04/25 02:22:21;;;;;;;15.15;10.25;;;7.90;99.90;;;;;;2117178;67;20265;-72
2022/04/25 02:25:06;;;;;;;15.52;8.98;;;8.10;99.90;;;;;;2111233;67;20177;-72
2022/04/25 02:27:47;;;;;;;10.32;8.65;;;8.10;99.90;;;;;;2111015;67;20322;-72
2022/04/25 02:30:29;;;;;;;11.70;8.75;;;8.10;99.90;;;;;;2109131;67;20287;-73
2022/04/25 02:33:11;;;;;;;13.77;9.07;;;8.20;99.90;;;;;;2120194;67;20192;-71
2022/04/25 02:35:52;;;;;;;15.93;8.90;;;8.20;99.90;;;;;;2111213;67;20380;-72
2022/04/25 02:38:35;;;;;;;11.63;8.45;;;8.30;99.90;;;;;;2122901;67;20321;-72
2022/04/25 02:41:18;;;;;;;12.65;8.30;;;8.30;99.90;;;;;;2127644;67;20483;-72
2022/04/25 02:44:02;;;;;;;;;;;8.30;99.90;;;;;;2120208;67;20295;-72
2022/04/25 02:46:45;;;;;;;13.40;7.75;;;8.30;99.90;;;;;;2121601;67;20080;-71
2022/04/25 02:49:31;;;;;;;10.95;7.75;;;8.30;99.90;;;;;;2124918;67;20179;-72
2022/04/25 02:52:16;;;;;;;11.32;7.75;;;8.40;99.90;;;;;;2116131;67;20362;-71
2022/04/25 02:55:01;;;;;;;11.35;7.25;;;8.40;99.90;;;;;;2096768;68;20339;-72
2022/04/25 02:57:45;;;;;;;12.13;7.60;;;8.40;99.90;;;;;;2104028;67;20202;-71
2022/04/25 03:00:33;;;;;;;11.75;7.72;;;8.40;99.90;;;;;;2110250;67;20177;-71
2022/04/25 03:03:18;;;;;;;10.20;7.05;;;8.40;99.90;;;;;;2109887;67;20707;-72
2022/04/25 03:06:05;;;;;;;10.15;7.25;;;8.50;99.90;;;;;;2095741;68;20780;-71
2022/04/25 03:08:46;;;;;;;10.80;7.47;;;8.60;99.90;;;;;;2082905;68;20493;-70
2022/04/25 03:11:29;;;;;;;14.02;7.43;;;8.50;99.90;;;;;;2108969;67;20280;-71
2022/04/25 03:14:14;;;;;;;13.68;8.45;;;8.50;99.90;;;;;;2112753;67;20339;-71
2022/04/25 03:16:58;;;;;;;13.05;8.20;;;8.50;99.90;;;;;;2124541;67;20465;-71
2022/04/25 03:19:44;;;;;;;13.02;7.85;;;8.50;99.90;;;;;;2125733;67;20275;-71
2022/04/25 03:22:27;;;;;;;11.55;7.30;;;8.50;99.90;;;;;;2132640;66;20179;-71
2022/04/25 03:25:13;;;;;;;11.90;6.78;;;8.60;99.90;;;;;;2124824;67;20180;-71
2022/04/25 03:27:58;;;;;;;11.35;6.53;;;8.60;99.90;;;;;;2117779;67;20347;-71
2022/04/25 03:30:43;;;;;;;8.75;7.32;;;8.60;99.90;;;;;;2115615;67;20216;-71
2022/04/25 03:33:31;;;;;;;11.57;6.68;;;9.20;99.90;;;;;;2117286;67;20243;-71
2022/04/25 03:36:17;;;;;;;11.32;7.78;;;8.60;99.90;;;;;;2110074;67;20345;-71
2022/04/25 03:39:08;;;;;;;10.75;6.63;;;8.50;99.90;;;;;;2122829;67;20337;-71
2022/04/25 03:41:49;;;;;;;11.02;7.32;;;8.50;99.90;;;;;;2112373;67;20269;-70
2022/04/25 03:44:30;;;;;;;11.70;8.32;;;8.50;99.90;;;;;;2116131;67;20746;-72
2022/04/25 03:47:12;;;;;;;11.93;8.00;;;8.50;99.90;;;;;;2117817;67;20189;-71
2022/04/25 03:49:54;;;;;;;14.18;7.82;;;8.50;99.90;;;;;;2122082;67;20172;-72
2022/04/25 03:52:37;;;;;;;12.95;8.40;;;8.40;99.90;;;;;;2116262;67;20255;-71
2022/04/25 03:58:22;;;;;;;9.93;7.55;;;8.50;99.90;;;;;;2124727;67;20201;-70
2022/04/25 04:01:04;;;;;;;11.18;8.27;;;8.50;99.90;;;;;;2129373;67;20350;-71
2022/04/25 04:03:53;;;;;;;12.52;7.95;;;8.50;99.90;;;;;;2118990;67;20696;-71
2022/04/25 04:06:38;;;;;;;12.98;8.73;;;8.40;99.90;;;;;;2117539;67;20706;-71
2022/04/25 04:12:20;;;;;;;11.43;7.70;;;8.40;99.90;;;;;;2114279;67;20202;-71
2022/04/25 04:15:06;;;;;;;10.80;7.65;;;8.40;99.90;;;;;;2132464;67;20192;-72
2022/04/25 04:17:47;;;;;;;10.15;7.22;;;8.30;99.90;;;;;;2132037;67;20272;-71
2022/04/25 04:20:29;;;;;;;10.43;6.25;;;8.30;99.90;;;;;;2132159;67;20368;-71
2022/04/25 04:23:11;;;;;;;11.40;7.20;;;8.30;99.90;;;;;;2132571;67;20286;-70
2022/04/25 04:25:54;;;;;;;9.35;7.50;;;8.40;99.90;;;;;;2132461;67;20396;-71
2022/04/25 04:28:39;;;;;;;10.48;7.22;;;8.30;99.90;;;;;;2125964;67;21454;-71
2022/04/25 04:31:20;;;;;;;13.38;7.70;;;8.30;99.90;;;;;;2127395;67;20534;-71
2022/04/25 04:34:03;;;;;;;10.77;7.72;;;8.30;99.90;;;;;;2135920;67;20226;-70
2022/04/25 04:36:49;;;;;;;10.65;7.68;;;8.30;99.90;;;;;;2147585;66;20248;-70
2022/04/25 04:39:32;;;;;;;10.13;7.10;;;8.20;99.90;;;;;;2145064;66;20690;-70
2022/04/25 04:42:16;;;;;;;8.60;7.43;;;8.30;99.90;;;;;;2141007;66;20223;-71
2022/04/25 04:44:59;;;;;;;12.52;7.97;;;8.30;99.90;;;;;;2141646;66;20389;-72
2022/04/25 04:47:44;;;;;;;13.05;7.72;;;8.30;99.90;;;;;;2131887;67;20172;-71
2022/04/25 04:50:27;;;;;;;12.30;7.63;;;8.30;99.90;;;;;;2132814;66;20265;-71
2022/04/25 04:53:12;;;;;;;11.40;8.43;;;8.40;99.90;;;;;;2109944;67;20409;-72
2022/04/25 04:55:56;;;;;;;9.57;7.55;;;8.30;99.90;;;;;;2112609;67;20381;-72
2022/04/25 04:58:38;;;;;;;12.10;7.40;;;8.40;99.90;;;;;;2124696;67;20423;-71
2022/04/25 05:01:20;;;;;;;12.40;8.25;;;8.30;99.90;;;;;;2124147;67;20192;-71
2022/04/25 05:04:03;;;;;;;14.00;7.80;;;8.40;99.90;;;;;;2125494;67;20280;-71
2022/04/25 05:06:49;;;;;;;13.45;8.35;;;8.30;99.90;;;;;;2131336;67;20175;-71
2022/04/25 05:09:30;;;;;;;11.93;8.15;;;8.40;99.90;;;;;;2118746;67;20203;-71
2022/04/25 05:12:10;;;;;;;12.57;8.57;;;8.40;99.90;;;;;;2130821;66;20223;-71
2022/04/25 05:14:48;;;;;;;12.57;8.65;;;8.40;99.90;;;;;;2146250;66;20170;-71
2022/04/25 05:17:28;;;;;;;14.27;8.65;;;8.40;99.90;;;;;;2146857;66;20212;-71
2022/04/25 05:20:10;;;;;;;11.75;7.85;;;8.70;99.90;;;;;;2136748;67;20183;-71
2022/04/25 05:22:52;;;;;;;10.75;8.13;;;8.30;99.90;;;;;;2137074;66;20281;-71
2022/04/25 05:25:38;;;;;;;13.80;8.25;;;8.70;99.90;;;;;;2133507;66;20825;-70
2022/04/25 05:28:15;;;;;;;16.05;8.35;;;8.40;99.90;;;;;;2148262;66;20181;-71
2022/04/25 05:31:44;;;;;;;10.70;8.05;;;8.40;99.90;;;;;;2164412;66;20732;-71
2022/04/25 05:34:25;;;;;;;10.73;7.80;;;8.40;99.90;;;;;;2186855;65;20354;-70
2022/04/25 05:37:04;;;;;;;11.70;7.60;;;8.70;99.90;;;;;;2196058;64;20193;-71
2022/04/25 05:39:42;;;;;;;8.75;7.50;;;8.50;99.90;;;;;;2215611;64;20213;-71
2022/04/25 05:42:27;;;;;;;10.95;7.72;;;8.50;99.90;;;;;;2215638;64;20195;-71
2022/04/25 05:45:08;;;;;;;12.25;8.13;;;8.50;99.90;;;;;;2215865;64;20207;-71
2022/04/25 05:47:48;;;;;;;13.85;7.90;;;8.50;99.90;;;;;;2217589;64;20707;-70
2022/04/25 05:53:24;;;;;;;11.25;8.50;;;8.50;99.90;;;;;;2214789;64;20202;-71
2022/04/25 05:56:05;;;;;;;10.95;8.00;;;8.50;99.90;;;;;;2215368;64;20592;-71
2022/04/25 05:58:42;;;;;;;11.85;9.05;;;8.50;99.90;;;;;;2215607;64;20172;-71
2022/04/25 06:01:19;;;;;;;16.08;8.75;;;8.50;99.90;;;;;;2215732;64;20168;-71
2022/04/25 06:03:56;;;;;;;10.27;8.00;;;8.60;99.90;;;;;;2215856;64;20215;-71
2022/04/25 06:06:32;;;;;;;10.13;7.93;;;8.60;99.90;;;;;;2215771;64;20193;-70
2022/04/25 06:09:10;;;;;;;11.38;8.18;;;8.70;99.90;;;;;;2214842;64;20325;-70
2022/04/25 06:11:50;;;;;;;14.85;8.68;;;8.70;99.90;;;;;;2216320;64;20301;-70
2022/04/25 06:14:28;;;;;;;10.90;8.52;;;8.80;99.90;;;;;;2216437;64;20232;-70
2022/04/25 06:17:05;;;;;;;10.75;8.02;;;8.80;99.90;;;;;;2215770;64;20312;-71
2022/04/25 06:19:44;;;;;;;12.75;8.07;;;8.80;99.90;;;;;;2214872;64;20184;-69
2022/04/25 06:22:27;;;;;;;10.27;7.05;;;8.90;99.90;;;;;;2214637;64;20381;-74
2022/04/25 06:25:06;;;;;;;9.63;7.03;;;9.00;99.90;;;;;;2214609;64;20160;-75
2022/04/25 06:27:45;;;;;;;8.63;7.35;;;9.10;99.90;;;;;;2216082;64;20214;-72
2022/04/25 06:30:28;;;;;;;12.40;8.27;;;9.10;99.90;;;;;;2214106;64;20184;-70
2022/04/25 06:33:09;;;;;;;9.75;7.07;;;9.20;99.90;;;;;;2210658;64;20223;-70
2022/04/25 06:35:50;;;;;;;8.90;7.47;;;9.20;99.90;;;;;;2214648;64;20216;-69
2022/04/25 06:38:29;;;;;;;10.48;8.27;;;9.20;99.90;;;;;;2214292;64;20212;-74
2022/04/25 06:41:07;;;;;;;9.63;7.60;;;9.20;99.90;;;;;;2211261;64;20215;-75
2022/04/25 06:43:44;;;;;;;9.60;7.00;;;9.30;99.90;;;;;;2209975;64;20640;-77
2022/04/25 06:46:25;;;;;;;11.68;7.22;;;9.20;99.90;;;;;;2209683;64;20169;-75
2022/04/25 06:49:20;;;;;;;13.60;8.73;;;9.30;99.90;;;;;;2214978;64;20189;-72
2022/04/25 06:52:00;;;;;;;9.98;7.57;;;9.40;99.90;;;;;;2215472;64;20257;-74
2022/04/25 06:54:39;;;;;;;10.85;7.97;;;9.40;99.90;;;;;;2214624;64;20722;-71
2022/04/25 06:57:22;;;;;;;12.15;6.70;;;9.40;99.90;;;;;;2212996;64;20328;-76
2022/04/25 06:59:59;;;;;;;12.65;8.40;;;9.40;99.90;;;;;;2210611;64;20321;-74
2022/04/25 07:02:37;;;;;;;12.18;8.48;;;9.40;99.90;;;;;;2214956;64;20365;-71
2022/04/25 07:05:14;;;;;;;11.65;7.72;;;9.40;99.90;;;;;;2214812;64;20192;-72
2022/04/25 07:07:52;;;;;;;10.27;7.97;;;9.40;99.90;;;;;;2214796;64;21034;-74
2022/04/25 07:10:31;;;;;;;12.65;7.72;;;9.50;99.90;;;;;;2214784;64;20232;-76
2022/04/25 07:13:15;;;;;;;11.93;8.60;;;9.60;99.90;;;;;;2213282;64;20189;-70
2022/04/25 07:15:54;;;;;;;11.88;7.80;;;9.60;99.90;;;;;;2214403;64;20187;-71
2022/04/25 07:18:32;;;;;;;11.95;8.48;;;9.60;99.90;;;;;;2214997;64;20233;-70
2022/04/25 07:29:55;;;;;;;11.48;9.43;;;9.80;99.90;;;;;;2214577;64;20238;-73
2022/04/25 07:32:33;;;;;;;10.10;7.72;;;10.00;99.90;;;;;;2215384;64;20233;-71
2022/04/25 07:35:11;;;;;;;9.27;7.60;;;10.00;99.90;;;;;;2211137;64;20216;-71
2022/04/25 07:37:51;;;;;;;12.00;7.47;;;10.00;99.90;;;;;;2211780;64;20187;-72
2022/04/25 07:40:28;;;;;;;8.90;6.80;;;10.00;99.90;;;;;;2214469;64;20188;-71
2022/04/25 07:43:05;;;;;;;7.95;6.05;;;9.90;99.90;;;;;;2213263;64;20202;-71
2022/04/25 07:45:43;;;;;;;10.05;6.85;;;10.00;99.90;;;;;;2213299;64;20201;-70
2022/04/25 07:48:25;;;;;;;13.35;6.53;;;9.90;99.90;;;;;;2214988;64;20266;-70
2022/04/25 07:51:09;;;;;;;16.27;6.35;;;9.90;99.90;;;;;;2217047;64;20224;-70
2022/04/25 07:53:50;;;;;;;9.02;6.60;;;9.90;99.90;;;;;;2214337;64;20176;-70
2022/04/25 07:56:29;;;;;;;7.90;5.47;;;9.90;99.90;;;;;;2213313;64;20180;-71
2022/04/25 07:59:11;;;;;;;7.82;5.10;;;9.90;99.90;;;;;;2214132;64;20182;-70
2022/04/25 08:01:52;;;;;;;9.70;5.10;;;10.00;99.90;;;;;;2217489;64;20706;-71
2022/04/25 08:04:34;;;;;;;8.30;5.32;;;10.00;99.90;;;;;;2213953;64;20188;-70
2022/04/25 08:07:16;;;;;;;5.95;4.63;;;10.50;99.80;;;;;;2214481;64;20176;-70
2022/04/25 08:09:57;;;;;;;8.85;4.70;;;10.20;99.40;;;;;;2214875;64;20344;-70
2022/04/25 08:18:29;;;;;;;6.30;4.68;;;10.40;98.80;;;;;;2214387;64;20559;-68
2022/04/25 08:21:07;;;;;;;8.93;4.30;;;10.40;98.60;;;;;;2210970;64;20712;-69
2022/04/25 08:23:47;;;;;;;8.48;5.28;;;10.50;98.40;;;;;;2213790;64;20237;-68
2022/04/25 08:26:26;;;;;;;7.10;4.40;;;10.50;98.30;;;;;;2214496;64;20335;-68
2022/04/25 08:29:05;;;;;;;7.20;5.18;;;10.60;98.20;;;;;;2215023;64;20231;-69
2022/04/25 08:31:43;;;;;;;5.90;4.90;;;10.70;98.00;;;;;;2215115;64;20183;-67
2022/04/25 08:34:24;;;;;;;8.90;5.32;;;10.80;97.70;;;;;;2214892;64;20163;-66
2022/04/25 08:37:04;;;;;;;8.23;5.55;;;10.90;97.60;;;;;;2214159;64;20394;-70
2022/04/25 08:39:41;;;;;;;7.60;5.28;;;11.00;97.20;;;;;;2215615;64;20190;-67
2022/04/25 08:42:19;;;;;;;7.95;5.10;;;11.20;96.90;;;;;;2214493;64;20335;-70
2022/04/25 08:44:59;;;;;;;8.48;5.30;;;11.30;96.50;;;;;;2215106;64;20272;-68
2022/04/25 08:47:48;;;;;;;12.25;6.13;;;11.40;96.40;;;;;;2214493;64;20192;-70
2022/04/25 08:50:26;;;;;;;9.50;5.13;;;11.60;96.10;;;;;;2213235;64;20188;-68
2022/04/25 08:53:04;;;;;;;10.95;5.00;;;11.60;95.90;;;;;;2215459;64;20354;-70
2022/04/25 08:55:42;;;;;;;5.50;4.00;;;11.80;95.80;;;;;;2216827;64;20187;-70
2022/04/25 08:58:24;;;;;;;9.73;4.93;;;11.90;95.30;;;;;;2217955;64;20337;-70
2022/04/25 09:01:02;;;;;;;6.75;4.20;;;12.00;95.40;;;;;;2216375;64;20198;-69
2022/04/25 09:03:41;;;;;;;7.28;4.20;;;12.00;95.00;;;;;;2215380;64;20282;-67
2022/04/25 09:06:19;;;;;;;5.55;4.70;;;12.20;94.90;;;;;;2211654;64;20193;-68
2022/04/25 09:08:57;;;;;;;5.28;4.10;;;12.20;94.40;;;;;;2211099;64;20229;-68
2022/04/25 09:14:32;;;;;;;5.07;3.63;;;12.20;94.30;;;;;;2216696;64;20176;-69
2022/04/25 09:17:12;;;;;;;7.90;4.00;;;12.40;94.20;;;;;;2215289;64;20358;-71
2022/04/25 09:19:55;;;;;;;7.00;4.18;;;12.40;93.90;;;;;;2215216;64;20809;-69
2022/04/25 09:22:39;;;;;;;6.30;4.03;;;12.50;93.70;;;;;;2215410;64;20179;-66
2022/04/25 09:25:20;;;;;;;7.70;4.15;;;12.60;93.40;;;;;;2215395;64;20257;-67
2022/04/25 09:28:35;;;;;;;7.05;4.25;;;12.70;93.10;;;;;;2215729;64;20176;-70
2022/04/25 09:31:15;;;;;;;11.00;3.83;;;12.80;92.90;;;;;;2215121;64;20377;-70
2022/04/25 09:33:52;;;;;;;5.50;3.65;;;12.80;92.70;;;;;;2215227;64;20184;-70
2022/04/25 09:36:46;;;;;;;10.45;3.95;;;12.80;92.60;;;;;;2215203;64;20734;-70
2022/04/25 09:39:32;;;;;;;7.82;3.65;;;12.70;92.20;;;;;;2210137;64;20194;-70
2022/04/25 09:42:10;;;;;;;5.00;3.30;;;12.60;92.20;;;;;;2213337;64;20197;-70
2022/04/25 09:44:59;;;;;;;5.20;3.20;;;12.60;92.50;;;;;;2215266;64;20769;-70
2022/04/25 09:47:38;;;;;;;5.85;3.70;;;12.70;92.40;;;;;;2214986;64;20175;-69
2022/04/25 09:50:20;;;;;;;5.15;3.20;;;12.70;92.40;;;;;;2215046;64;20179;-69
2022/04/25 09:53:03;;;;;;;5.78;3.35;;;12.80;92.30;;;;;;2210205;64;20192;-69
2022/04/25 09:55:42;;;;;;;5.88;3.20;;;12.90;92.20;;;;;;2214788;64;20246;-69
2022/04/25 09:58:23;;;;;;;5.35;3.67;;;13.00;91.90;;;;;;2215303;64;20188;-70
2022/04/25 10:01:11;;;;;;;4.85;3.17;;;13.10;91.70;;;;;;2215168;64;20179;-69
2022/04/25 10:03:49;;;;;;;9.05;3.65;;;13.30;91.60;;;;;;2215093;64;20405;-69
2022/04/25 10:06:32;;;;;;;7.82;3.25;;;13.40;91.40;;;;;;2215424;64;20189;-69
2022/04/25 10:09:09;;;;;;;8.82;3.80;;;13.50;91.00;;;;;;2214149;64;20206;-68
2022/04/25 10:11:49;;;;;;;5.90;3.30;;;13.70;90.70;;;;;;2214632;64;20636;-69
2022/04/25 10:14:29;;;;;;;4.32;3.42;;;13.90;90.60;;;;;;2215072;64;20314;-70
2022/04/25 10:17:10;;;;;;;5.57;3.70;;;14.10;90.10;;;;;;2214906;64;20223;-69
2022/04/25 10:19:52;;;;;;;5.40;3.13;;;14.30;89.90;;;;;;2215101;64;20294;-71
2022/04/25 10:22:34;;;;;;;4.68;3.15;;;14.40;89.60;;;;;;2214303;64;20209;-70
2022/04/25 10:25:12;;;;;;;6.85;4.10;;;14.50;89.10;;;;;;2215081;64;20639;-69
2022/04/25 10:27:51;;;;;;;5.00;2.92;;;14.70;88.60;;;;;;2215152;64;20204;-69
2022/04/25 10:30:34;;;;;;;4.63;3.65;;;14.80;87.50;;;;;;2215295;64;20168;-69
2022/04/25 10:33:49;;;;;;;4.45;3.42;;;15.00;85.90;;;;;;2215089;64;20172;-69
2022/04/25 10:36:37;;;;;;;5.90;3.95;;;15.00;85.00;;;;;;2213079;64;20645;-70
2022/04/25 10:39:13;;;;;;;6.60;3.30;;;14.90;83.80;;;;;;2214929;64;20221;-69
2022/04/25 10:44:56;;;;;;;6.03;3.17;;;14.80;84.20;;;;;;2214971;64;20189;-68
2022/04/25 10:47:36;;;;;;;5.25;3.97;;;14.90;84.50;;;;;;2215284;64;20227;-69
2022/04/25 10:50:20;;;;;;;4.22;3.53;;;15.00;83.90;;;;;;2215238;64;20317;-70
2022/04/25 10:53:01;;;;;;;4.40;3.58;;;15.10;82.80;;;;;;2209729;64;20335;-70
2022/04/25 10:55:43;;;;;;;4.28;3.22;;;15.00;82.40;;;;;;2214857;64;20223;-69
2022/04/25 10:58:20;;;;;;;5.78;3.58;;;15.00;81.10;;;;;;2215108;64;20172;-69
2022/04/25 11:00:58;;;;;;;5.40;3.35;;;15.00;80.70;;;;;;2216064;64;20179;-69
2022/04/25 11:03:35;;;;;;;5.82;3.72;;;14.90;79.70;;;;;;2214457;64;20177;-69
2022/04/25 11:06:26;;;;;;;8.57;3.60;;;14.90;79.30;;;;;;2212557;64;20202;-69
2022/04/25 11:09:04;;;;;;;13.77;4.45;;;15.10;79.00;;;;;;2214895;64;20191;-69
2022/04/25 11:11:48;;;;;;;8.10;3.95;;;15.10;78.20;;;;;;2214767;64;20206;-69
2022/04/25 11:14:29;;;;;;;32.50;8.32;;;15.10;78.00;;;;;;2214302;64;20548;-70
2022/04/25 11:17:15;;;;;;;5.05;3.17;;;15.10;78.30;;;;;;2215056;64;20281;-68
2022/04/25 11:19:56;;;;;;;6.20;3.72;;;15.20;78.20;;;;;;2214392;64;20605;-69
2022/04/25 11:22:41;;;;;;;6.53;3.78;;;15.30;77.90;;;;;;2214644;64;20241;-70
2022/04/25 11:25:26;;;;;;;7.45;3.10;;;15.40;77.50;;;;;;2214792;64;20185;-70
2022/04/25 11:28:12;;;;;;;6.47;3.38;;;15.50;76.60;;;;;;2215388;64;20184;-69
2022/04/25 11:31:26;;;;;;;6.35;3.33;;;15.60;75.90;;;;;;2213839;64;20694;-69
2022/04/25 11:34:28;;;;;;;5.05;3.50;;;15.70;76.00;;;;;;2190549;65;20261;-70
2022/04/25 11:37:10;;;;;;;6.57;4.05;;;15.90;75.70;;;;;;2190884;65;20200;-70
2022/04/25 11:40:20;;;;;;;5.10;3.22;;;15.90;76.40;;;;;;2191023;65;20313;-71
2022/04/25 11:43:06;;;;;;;6.82;3.53;;;16.00;77.30;;;;;;2180257;65;20217;-69
2022/04/25 11:45:46;;;;;;;5.78;3.60;;;16.00;77.40;;;;;;2175195;65;20844;-69
2022/04/25 11:48:23;;;;;;;5.38;3.72;;;16.00;77.60;;;;;;2175710;65;20176;-72
2022/04/25 11:51:03;;;;;;;6.85;3.65;;;16.00;77.70;;;;;;2176843;65;20342;-70
2022/04/25 11:53:45;;;;;;;7.07;3.50;;;16.10;77.70;;;;;;2178423;65;20687;-70
2022/04/25 11:56:22;;;;;;;6.35;4.18;;;16.10;77.90;;;;;;2170806;65;20633;-70
2022/04/25 11:59:13;;;;;;;5.80;3.58;;;16.10;78.00;;;;;;2175754;65;20191;-71
2022/04/25 12:01:53;;;;;;;5.95;3.90;;;16.10;78.00;;;;;;2175733;65;20476;-70
2022/04/25 12:04:33;;;;;;;5.63;3.75;;;16.00;78.20;;;;;;2172396;65;20187;-70
2022/04/25 12:07:11;;;;;;;8.07;4.25;;;16.00;78.30;;;;;;2175788;65;20220;-70
2022/04/25 12:15:38;;;;;;;6.53;3.83;;;16.00;79.50;;;;;;2193664;65;20198;-68
2022/04/25 12:18:28;;;;;;;5.22;3.90;;;15.90;79.00;;;;;;2194100;64;20304;-69
2022/04/25 12:21:12;;;;;;;5.93;3.75;;;15.70;78.00;;;;;;2213843;64;20188;-68
2022/04/25 12:23:54;;;;;;;6.28;3.60;;;15.50;78.30;;;;;;2213889;64;20188;-68
2022/04/25 12:26:34;;;;;;;7.43;4.13;;;15.40;78.20;;;;;;2213405;64;20187;-76
2022/04/25 12:29:12;;;;;;;6.35;4.28;;;15.20;78.20;;;;;;2209344;64;20168;-75
2022/04/25 12:31:52;;;;;;;6.32;4.90;;;15.10;78.30;;;;;;2215642;64;20248;-76
2022/04/25 12:34:33;;;;;;;6.38;4.55;;;14.90;78.60;;;;;;2217016;64;20160;-70
2022/04/25 12:37:14;;;;;;;4.45;4.03;;;14.90;78.90;;;;;;2216819;64;20717;-70
2022/04/25 12:40:04;;;;;;;6.85;4.03;;;14.90;78.90;;;;;;2213312;64;20192;-70
2022/04/25 12:42:50;;;;;;;6.32;4.30;;;14.80;79.20;;;;;;2216443;64;20202;-70
2022/04/25 12:45:48;;;;;;;4.85;4.38;;;14.90;79.40;;;;;;2217180;64;20798;-70
2022/04/25 12:48:33;;;;;;;4.97;3.90;;;14.90;79.10;;;;;;2216949;64;20756;-69
2022/04/25 12:51:26;;;;;;;8.38;4.55;;;15.00;79.10;;;;;;2217721;64;20233;-71
2022/04/25 12:54:19;;;;;;;4.53;3.15;;;15.10;79.30;;;;;;2217141;64;20179;-69
2022/04/25 12:57:24;;;;;;;6.25;4.38;;;15.40;79.70;;;;;;2216312;64;20260;-69
2022/04/25 13:00:08;;;;;;;7.25;4.95;;;15.90;78.80;;;;;;2214356;64;20272;-69
2022/04/25 13:02:49;;;;;;;8.68;4.32;;;16.20;78.00;;;;;;2216724;64;20168;-70
2022/04/25 13:05:26;;;;;;;9.88;4.00;;;16.40;77.50;;;;;;2217054;64;20398;-70
2022/04/25 13:08:04;;;;;;;6.25;3.63;;;16.70;77.00;;;;;;2215107;64;20332;-71
2022/04/25 13:10:43;;;;;;;6.13;3.80;;;17.10;75.40;;;;;;2216670;64;20192;-69
2022/04/25 13:13:21;;;;;;;5.95;3.92;;;18.30;75.10;;;;;;2217714;64;20733;-69
2022/04/25 13:15:59;;;;;;;7.93;3.85;;;20.70;70.10;;;;;;2216910;64;20164;-70
2022/04/25 13:18:40;;;;;;;4.78;3.95;;;22.50;64.90;;;;;;2216448;64;20767;-70
2022/04/25 13:21:20;;;;;;;6.18;3.60;;;23.60;60.70;;;;;;1985537;64;15083664;-70
2022/04/25 13:23:59;;;;;;;5.22;4.00;;;24.70;57.20;;;;;;2216281;64;20195;-71
2022/04/25 13:26:36;;;;;;;6.50;4.20;;;25.60;54.40;;;;;;2213747;64;20789;-68
2022/04/25 13:29:17;;;;;;;7.00;4.38;;;26.00;51.90;;;;;;2216544;64;20319;-70
2022/04/25 13:31:57;;;;;;;4.65;4.15;;;26.70;51.00;;;;;;2214940;64;20203;-70
2022/04/25 13:34:38;;;;;;;5.68;4.10;;;27.30;48.90;;;;;;2216265;64;20198;-71
2022/04/25 13:37:18;;;;;;;6.82;4.55;;;27.90;49.10;;;;;;2216454;64;20209;-71
2022/04/25 13:40:00;;;;;;;5.85;4.32;;;28.80;47.10;;;;;;2217123;64;20286;-72
2022/04/25 13:42:44;;;;;;;6.50;4.40;;;29.70;45.90;;;;;;2215011;64;20272;-71
2022/04/25 13:45:21;;;;;;;4.93;3.95;;;30.40;44.40;;;;;;2215326;64;20285;-70
2022/04/25 13:47:59;;;;;;;7.75;4.72;;;30.60;42.60;;;;;;2214914;64;20339;-70
2022/04/25 13:50:39;;;;;;;6.18;4.93;;;29.80;42.40;;;;;;2215954;64;20184;-70
2022/04/25 13:53:20;;;;;;;7.35;4.65;;;28.60;42.70;;;;;;2216671;64;20254;-71
2022/04/25 13:56:04;;;;;;;5.50;4.03;;;27.40;44.10;;;;;;2217297;64;20202;-70
2022/04/25 13:58:43;;;;;;;4.82;4.20;;;27.60;44.10;;;;;;2215560;64;20179;-69
2022/04/25 14:01:24;;;;;;;5.20;4.30;;;28.00;43.30;;;;;;2217057;64;20218;-69
2022/04/25 14:04:06;;;;;;;5.78;4.05;;;27.10;43.30;;;;;;2215563;64;20233;-70
2022/04/25 14:06:44;;;;;;;7.68;4.10;;;25.90;43.90;;;;;;2214197;64;20781;-70
2022/04/25 14:09:22;;;;;;;8.25;3.95;;;24.70;45.40;;;;;;2215406;64;20183;-70
2022/04/25 14:12:02;;;;;;;6.65;4.65;;;23.50;46.90;;;;;;2215161;64;20306;-70
2022/04/25 14:14:41;;;;;;;4.68;4.18;;;22.30;48.40;;;;;;2215247;64;20378;-69
2022/04/25 14:17:21;;;;;;;6.05;4.07;;;21.30;50.20;;;;;;2210547;64;20289;-69
2022/04/25 14:20:05;;;;;;;7.88;4.80;;;20.40;51.90;;;;;;2214705;64;20259;-69
2022/04/25 14:22:42;;;;;;;6.10;4.30;;;19.50;53.10;;;;;;2214931;64;20188;-70
2022/04/25 14:25:19;;;;;;;6.90;4.72;;;18.90;54.30;;;;;;2214874;64;20172;-70
2022/04/25 14:27:58;;;;;;;5.43;4.47;;;18.40;55.60;;;;;;2215572;64;20231;-69
2022/04/25 14:30:35;;;;;;;4.22;3.70;;;17.90;56.90;;;;;;2214579;64;20185;-69
2022/04/25 14:33:11;;;;;;;6.65;4.70;;;17.50;57.90;;;;;;2214528;64;20194;-69
2022/04/25 14:35:49;;;;;;;5.95;3.95;;;17.30;58.80;;;;;;2215120;64;20172;-70
2022/04/25 14:38:29;;;;;;;5.75;3.90;;;17.10;59.60;;;;;;2215086;64;20271;-69
2022/04/25 14:41:07;;;;;;;7.53;4.20;;;16.80;60.30;;;;;;2217227;64;20349;-70
2022/04/25 14:43:48;;;;;;;6.32;3.75;;;16.60;60.70;;;;;;2215995;64;20687;-71
2022/04/25 14:46:28;;;;;;;7.22;4.00;;;16.30;61.30;;;;;;2214457;64;20359;-71
2022/04/25 14:49:07;;;;;;;6.15;3.80;;;16.20;62.20;;;;;;2214764;64;20340;-69